createdAt,value
2018-11-10T00:00:45.169Z,20.13
2018-11-10T00:03:13.444Z,19.43
2018-11-10T00:05:42.481Z,19.20
2018-11-10T00:08:10.782Z,19.03
2018-11-10T00:10:38.988Z,19.17
2018-11-10T00:13:07.306Z,18.23
2018-11-10T00:15:35.549Z,19.40
2018-11-10T00:18:03.815Z,18.50
2018-11-10T00:20:32.092Z,18.10
2018-11-10T00:23:00.340Z,14.93
2018-11-10T00:25:29.364Z,15.20
2018-11-10T00:27:57.627Z,16.20
2018-11-10T00:30:25.902Z,16.33
2018-11-10T00:32:55.055Z,16.73
2018-11-10T00:35:23.324Z,17.30
2018-11-10T00:37:51.599Z,16.47
2018-11-10T00:40:19.855Z,19.33
2018-11-10T00:42:48.110Z,17.30
2018-11-10T00:45:16.417Z,18.27
2018-11-10T00:47:45.458Z,18.73
2018-11-10T00:50:13.754Z,19.30
2018-11-10T00:52:42.080Z,18.13
2018-11-10T00:55:10.284Z,20.23
2018-11-10T00:57:39.309Z,19.63
2018-11-10T01:00:07.581Z,19.80
2018-11-10T01:02:35.833Z,19.43
2018-11-10T01:05:04.097Z,19.47
2018-11-10T01:07:33.126Z,20.83
2018-11-10T01:10:01.393Z,20.20
2018-11-10T01:12:29.642Z,19.37
2018-11-10T01:14:58.702Z,20.87
2018-11-10T01:17:26.960Z,18.93
2018-11-10T01:19:55.766Z,19.67
2018-11-10T01:22:24.033Z,19.57
2018-11-10T01:24:52.290Z,19.47
2018-11-10T01:27:20.567Z,19.57
2018-11-10T01:29:49.241Z,18.93
2018-11-10T01:32:17.516Z,18.90
2018-11-10T01:34:45.779Z,19.17
2018-11-10T01:37:14.069Z,19.23
2018-11-10T01:39:42.341Z,19.83
2018-11-10T01:42:10.590Z,19.10
2018-11-10T01:44:38.866Z,19.80
2018-11-10T01:47:07.115Z,19.53
2018-11-10T01:49:35.378Z,17.60
2018-11-10T01:52:03.644Z,18.93
2018-11-10T01:54:31.907Z,19.00
2018-11-10T01:57:00.195Z,19.73
2018-11-10T01:59:28.437Z,20.03
2018-11-10T02:01:56.717Z,18.93
2018-11-10T02:04:24.978Z,18.13
2018-11-10T02:06:53.293Z,19.07
2018-11-10T02:09:21.534Z,19.37
2018-11-10T02:11:49.787Z,18.63
2018-11-10T02:14:18.818Z,19.30
2018-11-10T02:16:47.831Z,18.60
2018-11-10T02:19:16.468Z,19.20
2018-11-10T02:21:44.719Z,18.50
2018-11-10T02:24:13.731Z,19.07
2018-11-10T02:26:41.995Z,18.33
2018-11-10T02:29:10.255Z,18.30
2018-11-10T02:31:39.446Z,18.83
2018-11-10T02:34:08.307Z,17.43
2018-11-10T02:36:36.562Z,17.93
2018-11-10T02:39:04.858Z,17.80
2018-11-10T02:41:33.122Z,17.53
2018-11-10T02:44:01.402Z,18.97
2018-11-10T02:46:29.662Z,18.93
2018-11-10T02:48:57.910Z,18.83
2018-11-10T02:51:26.506Z,19.57
2018-11-10T02:53:54.775Z,20.30
2018-11-10T02:56:23.024Z,18.37
2018-11-10T02:58:52.066Z,19.90
2018-11-10T03:01:20.340Z,20.10
2018-11-10T03:03:48.623Z,19.37
2018-11-10T03:06:17.650Z,20.33
2018-11-10T03:08:45.905Z,20.00
2018-11-10T03:11:14.165Z,18.67
2018-11-10T03:13:42.411Z,18.90
2018-11-10T03:16:10.730Z,18.60
2018-11-10T03:18:38.950Z,18.50
2018-11-10T03:21:07.235Z,17.30
2018-11-10T03:23:36.233Z,17.30
2018-11-10T03:26:04.493Z,16.97
2018-11-10T03:28:32.747Z,17.53
2018-11-10T03:31:01.004Z,18.30
2018-11-10T03:33:29.548Z,18.10
2018-11-10T03:35:57.793Z,19.37
2018-11-10T03:38:26.818Z,20.03
2018-11-10T03:40:55.086Z,19.57
2018-11-10T03:43:23.342Z,20.37
2018-11-10T03:45:51.947Z,21.47
2018-11-10T03:48:20.198Z,20.80
2018-11-10T03:50:49.218Z,19.57
2018-11-10T03:53:17.497Z,20.00
2018-11-10T03:55:45.737Z,20.20
2018-11-10T03:58:14.770Z,20.07
2018-11-10T04:00:43.031Z,19.10
2018-11-10T04:03:11.307Z,19.97
2018-11-10T04:05:39.558Z,19.57
2018-11-10T04:08:08.591Z,19.03
2018-11-10T04:10:36.847Z,19.17
2018-11-10T04:13:05.096Z,18.57
2018-11-10T04:15:34.126Z,18.27
2018-11-10T04:18:02.397Z,19.10
2018-11-10T04:20:30.653Z,18.90
2018-11-10T04:22:58.944Z,20.40
2018-11-10T04:25:27.205Z,20.20
2018-11-10T04:27:55.467Z,20.50
2018-11-10T04:30:24.478Z,20.67
2018-11-10T04:32:52.735Z,20.30
2018-11-10T04:35:21.754Z,21.40
2018-11-10T04:37:50.007Z,20.70
2018-11-10T04:40:18.278Z,21.03
2018-11-10T04:42:47.304Z,19.80
2018-11-10T04:45:15.575Z,19.87
2018-11-10T04:47:43.828Z,21.93
2018-11-10T04:50:12.087Z,21.30
2018-11-10T04:52:41.106Z,22.53
2018-11-10T04:55:09.350Z,22.10
2018-11-10T04:57:38.397Z,22.60
2018-11-10T05:00:06.637Z,22.50
2018-11-10T05:02:34.907Z,21.37
2018-11-10T05:05:03.158Z,21.10
2018-11-10T05:07:31.407Z,21.00
2018-11-10T05:10:00.882Z,19.87
2018-11-10T05:12:29.878Z,21.23
2018-11-10T05:14:58.134Z,20.60
2018-11-10T05:17:26.386Z,21.23
2018-11-10T05:19:55.432Z,21.27
2018-11-10T05:22:23.675Z,20.73
2018-11-10T05:24:51.927Z,22.13
2018-11-10T05:27:20.327Z,21.87
2018-11-10T05:29:49.366Z,21.30
2018-11-10T05:32:17.638Z,22.40
2018-11-10T05:34:45.898Z,21.73
2018-11-10T05:37:14.155Z,21.70
2018-11-10T05:39:42.423Z,21.70
2018-11-10T05:42:10.678Z,21.07
2018-11-10T05:44:39.719Z,20.83
2018-11-10T05:47:07.966Z,20.27
2018-11-10T05:49:37.002Z,20.10
2018-11-10T05:52:05.272Z,20.00
2018-11-10T05:54:33.529Z,20.00
2018-11-10T05:57:01.842Z,21.43
2018-11-10T05:59:31.018Z,20.53
2018-11-10T06:02:00.035Z,22.10
2018-11-10T06:04:28.302Z,21.77
2018-11-10T06:06:56.563Z,21.70
2018-11-10T06:09:24.869Z,21.97
2018-11-10T06:11:53.086Z,22.20
2018-11-10T06:14:21.363Z,20.50
2018-11-10T06:16:49.614Z,22.20
2018-11-10T06:19:18.647Z,20.57
2018-11-10T06:21:46.927Z,21.47
2018-11-10T06:24:15.164Z,22.03
2018-11-10T06:26:43.442Z,21.83
2018-11-10T06:29:11.698Z,19.90
2018-11-10T06:31:40.710Z,20.97
2018-11-10T06:34:09.110Z,20.80
2018-11-10T06:36:37.359Z,21.17
2018-11-10T06:39:05.893Z,22.03
2018-11-10T06:41:34.212Z,19.93
2018-11-10T06:44:02.391Z,20.90
2018-11-10T06:46:30.983Z,19.60
2018-11-10T06:48:59.234Z,21.47
2018-11-10T06:51:28.289Z,20.43
2018-11-10T06:53:56.795Z,20.33
2018-11-10T06:56:25.830Z,21.37
2018-11-10T06:58:54.079Z,20.67
2018-11-10T07:01:23.121Z,20.50
2018-11-10T07:03:51.524Z,21.23
2018-11-10T07:06:19.791Z,20.17
2018-11-10T07:08:48.044Z,21.03
2018-11-10T07:11:16.319Z,20.27
2018-11-10T07:13:44.582Z,21.90
2018-11-10T07:16:12.855Z,21.13
2018-11-10T07:18:41.974Z,21.10
2018-11-10T07:21:11.007Z,20.70
2018-11-10T07:23:40.038Z,20.27
2018-11-10T07:26:08.571Z,20.97
2018-11-10T07:28:36.826Z,19.20
2018-11-10T07:31:05.908Z,21.13
2018-11-10T07:33:34.167Z,20.27
2018-11-10T07:36:02.427Z,22.20
2018-11-10T07:38:30.722Z,19.63
2018-11-10T07:40:58.962Z,20.97
2018-11-10T07:43:27.221Z,20.80
2018-11-10T07:45:56.242Z,20.93
2018-11-10T07:48:24.504Z,20.20
2018-11-10T07:50:52.788Z,20.83
2018-11-10T07:53:21.112Z,19.20
2018-11-10T07:55:49.396Z,20.67
2018-11-10T07:58:17.639Z,18.87
2018-11-10T08:00:45.902Z,19.67
2018-11-10T08:03:14.149Z,20.80
2018-11-10T08:05:43.172Z,21.40
2018-11-10T08:08:11.457Z,20.73
2018-11-10T08:10:39.709Z,20.60
2018-11-10T08:13:07.978Z,19.57
2018-11-10T08:15:36.242Z,20.70
2018-11-10T08:18:05.291Z,19.83
2018-11-10T08:20:33.534Z,21.17
2018-11-10T08:23:02.148Z,19.77
2018-11-10T08:25:30.386Z,21.63
2018-11-10T08:27:58.635Z,22.03
2018-11-10T08:30:27.674Z,20.97
2018-11-10T08:32:55.926Z,21.10
2018-11-10T08:35:24.175Z,21.53
2018-11-10T08:37:53.961Z,22.17
2018-11-10T08:40:22.214Z,21.40
2018-11-10T08:42:50.465Z,21.17
2018-11-10T08:45:18.746Z,21.40
2018-11-10T08:47:47.803Z,21.03
2018-11-10T08:50:16.824Z,21.00
2018-11-10T08:52:45.401Z,21.47
2018-11-10T08:55:13.682Z,20.90
2018-11-10T08:57:42.051Z,21.00
2018-11-10T09:00:10.214Z,20.33
2018-11-10T09:02:39.703Z,20.53
2018-11-10T09:05:08.735Z,19.53
2018-11-10T09:07:36.999Z,21.00
2018-11-10T09:10:05.247Z,19.73
2018-11-10T09:12:34.299Z,20.30
2018-11-10T09:15:02.597Z,19.97
2018-11-10T09:17:30.850Z,20.03
2018-11-10T09:19:59.082Z,20.53
2018-11-10T09:22:27.697Z,20.97
2018-11-10T09:24:55.942Z,20.90
2018-11-10T09:27:24.982Z,19.50
2018-11-10T09:29:53.249Z,20.00
2018-11-10T09:32:21.518Z,19.30
2018-11-10T09:34:49.773Z,20.53
2018-11-10T09:37:18.042Z,19.30
2018-11-10T09:39:46.298Z,18.40
2018-11-10T09:42:15.436Z,18.40
2018-11-10T09:44:43.587Z,19.70
2018-11-10T09:47:11.853Z,19.53
2018-11-10T09:49:40.138Z,18.10
2018-11-10T09:52:08.409Z,18.53
2018-11-10T09:54:37.421Z,19.00
2018-11-10T09:57:06.454Z,17.73
2018-11-10T09:59:34.715Z,18.47
2018-11-10T10:02:03.348Z,18.50
2018-11-10T10:04:31.262Z,18.80
2018-11-10T10:06:59.530Z,19.13
2018-11-10T10:09:28.106Z,18.80
2018-11-10T10:11:56.372Z,18.47
2018-11-10T10:14:24.620Z,19.10
2018-11-10T10:16:52.898Z,17.93
2018-11-10T10:19:21.151Z,18.57
2018-11-10T10:21:50.522Z,17.57
2018-11-10T10:24:18.735Z,19.37
2018-11-10T10:26:47.742Z,17.70
2018-11-10T10:29:16.028Z,17.93
2018-11-10T10:31:44.295Z,18.73
2018-11-10T10:34:12.603Z,19.97
2018-11-10T10:36:40.820Z,18.07
2018-11-10T10:39:09.830Z,18.07
2018-11-10T10:41:38.210Z,18.40
2018-11-10T10:44:06.474Z,18.40
2018-11-10T10:46:35.493Z,18.27
2018-11-10T10:49:04.098Z,17.93
2018-11-10T10:51:32.263Z,17.90
2018-11-10T10:54:00.511Z,22.10
2018-11-10T10:56:28.839Z,25.87
2018-11-10T10:58:57.392Z,19.73
2018-11-10T11:01:31.225Z,19.90
2018-11-10T11:03:59.522Z,28.17
2018-11-10T11:06:27.771Z,18.53
2018-11-10T11:08:56.088Z,17.43
2018-11-10T11:11:24.394Z,16.53
2018-11-10T11:13:53.958Z,16.30
2018-11-10T11:16:22.995Z,17.10
2018-11-10T11:18:51.277Z,17.47
2018-11-10T11:21:19.539Z,16.83
2018-11-10T11:23:47.878Z,16.23
2018-11-10T11:26:16.119Z,17.17
2018-11-10T11:28:44.397Z,17.70
2018-11-10T11:31:12.755Z,16.80
2018-11-10T11:33:41.709Z,16.20
2018-11-10T11:36:10.736Z,16.73
2018-11-10T11:38:38.998Z,16.70
2018-11-10T11:41:07.307Z,15.97
2018-11-10T11:43:36.571Z,16.57
2018-11-10T11:46:04.822Z,15.97
2018-11-10T11:48:33.844Z,14.77
2018-11-10T11:51:02.127Z,15.13
2018-11-10T11:53:30.402Z,15.33
2018-11-10T11:55:58.652Z,15.73
2018-11-10T11:58:27.014Z,17.47
2018-11-10T12:00:55.298Z,16.40
2018-11-10T12:03:24.315Z,17.67
2018-11-10T12:05:52.574Z,16.83
2018-11-10T12:08:20.833Z,17.97
2018-11-10T12:10:49.856Z,16.43
2018-11-10T12:13:18.435Z,17.93
2018-11-10T12:15:46.693Z,17.73
2018-11-10T12:18:15.700Z,16.60
2018-11-10T12:20:44.023Z,17.70
2018-11-10T12:23:12.447Z,16.87
2018-11-10T12:25:40.707Z,17.03
2018-11-10T12:28:09.726Z,17.00
2018-11-10T12:30:38.315Z,17.03
2018-11-10T12:33:06.577Z,16.50
2018-11-10T12:35:34.856Z,16.77
2018-11-10T12:38:03.110Z,17.33
2018-11-10T12:40:32.159Z,17.03
2018-11-10T12:43:00.455Z,17.73
2018-11-10T12:45:28.726Z,17.53
2018-11-10T12:47:56.987Z,16.60
2018-11-10T12:50:25.238Z,17.53
2018-11-10T12:52:53.526Z,17.00
2018-11-10T12:55:22.581Z,17.03
2018-11-10T12:57:50.846Z,17.63
2018-11-10T13:00:19.884Z,19.03
2018-11-10T13:02:48.152Z,23.77
2018-11-10T13:05:16.429Z,38.47
2018-11-10T13:07:44.754Z,28.37
2018-11-10T13:10:12.987Z,19.10
2018-11-10T13:12:41.242Z,24.97
2018-11-10T13:15:09.515Z,25.27
2018-11-10T13:17:37.830Z,27.73
2018-11-10T13:20:06.034Z,17.73
2018-11-10T13:22:35.070Z,18.60
2018-11-10T13:25:03.319Z,18.20
2018-11-10T13:27:31.791Z,16.80
2018-11-10T13:30:00.807Z,16.90
2018-11-10T13:32:29.063Z,17.23
2018-11-10T13:34:57.566Z,17.90
2018-11-10T13:37:25.846Z,16.97
2018-11-10T13:39:54.126Z,17.97
2018-11-10T13:42:23.137Z,23.37
2018-11-10T13:44:51.356Z,19.63
2018-11-10T13:47:20.389Z,18.47
2018-11-10T13:49:48.647Z,16.90
2018-11-10T13:52:17.270Z,16.67
2018-11-10T13:54:45.946Z,16.30
2018-11-10T13:57:14.477Z,16.80
2018-11-10T13:59:42.789Z,17.20
2018-11-10T14:02:11.044Z,18.53
2018-11-10T14:04:39.303Z,19.60
2018-11-10T14:07:08.586Z,21.87
2018-11-10T14:09:37.629Z,19.07
2018-11-10T14:12:05.858Z,18.50
2018-11-10T14:14:34.904Z,19.60
2018-11-10T14:17:03.163Z,18.47
2018-11-10T14:19:31.432Z,17.87
2018-11-10T14:21:59.720Z,16.50
2018-11-10T14:24:28.001Z,17.10
2018-11-10T14:26:56.254Z,16.13
2018-11-10T14:29:24.510Z,23.60
2018-11-10T14:31:52.780Z,17.33
2018-11-10T14:34:21.802Z,18.17
2018-11-10T14:36:50.083Z,18.00
2018-11-10T14:39:18.351Z,17.70
2018-11-10T14:41:46.620Z,18.33
2018-11-10T14:44:14.968Z,17.90
2018-11-10T14:46:43.146Z,18.00
2018-11-10T14:49:12.212Z,16.87
2018-11-10T14:51:40.476Z,17.43
2018-11-10T14:54:08.814Z,17.97
2018-11-10T14:56:37.099Z,18.37
2018-11-10T14:59:05.353Z,17.57
2018-11-10T15:01:33.961Z,21.27
2018-11-10T15:04:02.244Z,23.10
2018-11-10T15:06:30.491Z,19.90
2018-11-10T15:08:58.772Z,19.93
2018-11-10T15:11:27.040Z,22.07
2018-11-10T15:13:55.304Z,24.37
2018-11-10T15:16:24.330Z,24.33
2018-11-10T15:18:52.590Z,23.83
2018-11-10T15:21:20.859Z,21.43
2018-11-10T15:23:49.406Z,30.67
2018-11-10T15:26:20.495Z,30.03
2018-11-10T15:28:49.504Z,23.13
2018-11-10T15:31:17.758Z,20.53
2018-11-10T15:33:46.019Z,19.87
2018-11-10T15:36:14.547Z,21.03
2018-11-10T15:38:42.801Z,30.77
2018-11-10T15:41:11.069Z,24.50
2018-11-10T15:43:39.342Z,21.93
2018-11-10T15:46:07.609Z,23.10
2018-11-10T15:48:35.886Z,31.23
2018-11-10T15:51:04.146Z,30.10
2018-11-10T15:53:32.431Z,28.63
2018-11-10T15:56:01.042Z,25.93
2018-11-10T15:58:29.316Z,25.17
2018-11-10T16:00:57.562Z,25.87
2018-11-10T16:03:25.847Z,23.90
2018-11-10T16:05:54.129Z,24.37
2018-11-10T16:08:22.371Z,19.10
2018-11-10T16:10:51.411Z,26.23
2018-11-10T16:13:19.657Z,17.77
2018-11-10T16:15:47.915Z,16.03
2018-11-10T16:18:16.954Z,17.03
2018-11-10T16:20:45.276Z,16.43
2018-11-10T16:23:13.466Z,15.67
2018-11-10T16:25:41.788Z,15.60
2018-11-10T16:28:10.061Z,13.93
2018-11-10T16:30:38.334Z,14.03
2018-11-10T16:33:06.614Z,15.13
2018-11-10T16:35:34.891Z,16.67
2018-11-10T16:38:03.812Z,15.07
2018-11-10T16:40:32.342Z,15.90
2018-11-10T16:43:00.610Z,15.07
2018-11-10T16:45:28.867Z,15.87
2018-11-10T16:47:57.210Z,14.87
2018-11-10T16:50:25.499Z,15.20
2018-11-10T16:52:54.046Z,14.20
2018-11-10T16:55:22.304Z,14.67
2018-11-10T16:57:50.591Z,13.73
2018-11-10T17:00:18.856Z,13.33
2018-11-10T17:02:47.112Z,12.80
2018-11-10T17:05:15.410Z,13.57
2018-11-10T17:07:43.656Z,13.90
2018-11-10T17:10:11.915Z,14.23
2018-11-10T17:12:40.974Z,14.00
2018-11-10T17:15:09.234Z,13.40
2018-11-10T17:17:37.525Z,13.37
2018-11-10T17:20:05.783Z,12.53
2018-11-10T17:22:34.147Z,13.30
2018-11-10T17:25:02.325Z,13.00
2018-11-10T17:27:30.831Z,12.33
2018-11-10T17:29:59.163Z,11.97
2018-11-10T17:32:28.386Z,11.83
2018-11-10T17:34:56.648Z,11.03
2018-11-10T17:37:24.914Z,9.63
2018-11-10T17:39:53.334Z,9.70
2018-11-10T17:42:21.465Z,10.13
2018-11-10T17:44:49.733Z,9.37
2018-11-10T17:47:18.749Z,9.90
2018-11-10T17:49:47.011Z,8.97
2018-11-10T17:52:16.557Z,9.53
2018-11-10T17:54:44.767Z,8.77
2018-11-10T17:57:12.970Z,8.37
2018-11-10T17:59:41.235Z,8.50
2018-11-10T18:02:09.553Z,8.17
2018-11-10T18:04:37.770Z,8.90
2018-11-10T18:07:06.060Z,9.17
2018-11-10T18:09:34.314Z,9.67
2018-11-10T18:12:03.335Z,9.80
2018-11-10T18:14:31.605Z,7.27
2018-11-10T18:16:59.857Z,7.27
2018-11-10T18:19:28.889Z,7.10
2018-11-10T18:21:57.182Z,6.37
2018-11-10T18:24:25.431Z,5.87
2018-11-10T18:26:54.006Z,5.53
2018-11-10T18:29:22.998Z,6.00
2018-11-10T18:31:51.263Z,5.53
2018-11-10T18:34:19.524Z,5.57
2018-11-10T18:36:48.554Z,6.23
2018-11-10T18:39:16.834Z,5.90
2018-11-10T18:41:45.067Z,5.63
2018-11-10T18:44:14.202Z,5.53
2018-11-10T18:46:42.466Z,5.83
2018-11-10T18:49:10.698Z,5.40
2018-11-10T18:51:39.756Z,5.43
2018-11-10T18:54:08.003Z,5.17
2018-11-10T18:56:36.236Z,5.63
2018-11-10T18:59:04.498Z,5.57
2018-11-10T19:01:33.543Z,6.20
2018-11-10T19:04:01.803Z,5.33
2018-11-10T19:06:30.979Z,5.20
2018-11-10T19:08:59.118Z,5.67
2018-11-10T19:11:27.387Z,5.30
2018-11-10T19:13:55.646Z,5.83
2018-11-10T19:16:23.911Z,5.33
2018-11-10T19:18:52.168Z,6.40
2018-11-10T19:21:21.246Z,7.00
2018-11-10T19:23:50.311Z,6.87
2018-11-10T19:26:18.617Z,6.57
2018-11-10T19:28:46.862Z,6.70
2018-11-10T19:31:15.118Z,6.90
2018-11-10T19:33:43.701Z,6.47
2018-11-10T19:36:11.984Z,6.53
2018-11-10T19:38:40.240Z,6.27
2018-11-10T19:41:08.519Z,6.20
2018-11-10T19:43:36.798Z,7.03
2018-11-10T19:46:05.051Z,8.53
2018-11-10T19:48:33.313Z,7.90
2018-11-10T19:51:01.930Z,8.17
2018-11-10T19:53:29.858Z,8.70
2018-11-10T19:55:58.912Z,8.37
2018-11-10T19:58:27.155Z,8.70
2018-11-10T20:00:55.553Z,8.23
2018-11-10T20:03:23.778Z,7.47
2018-11-10T20:05:52.794Z,7.87
2018-11-10T20:08:21.091Z,7.63
2018-11-10T20:10:49.368Z,6.77
2018-11-10T20:13:17.651Z,7.10
2018-11-10T20:15:45.908Z,6.60
2018-11-10T20:18:14.163Z,7.90
2018-11-10T20:20:42.415Z,7.03
2018-11-10T20:23:10.700Z,6.60
2018-11-10T20:25:39.718Z,6.73
2018-11-10T20:28:07.991Z,6.50
2018-11-10T20:30:36.239Z,6.37
2018-11-10T20:33:05.253Z,6.77
2018-11-10T20:35:33.646Z,6.50
2018-11-10T20:38:01.939Z,6.83
2018-11-10T20:40:30.200Z,6.43
2018-11-10T20:42:58.456Z,6.30
2018-11-10T20:45:26.727Z,6.43
2018-11-10T20:47:54.979Z,6.50
2018-11-10T20:50:24.028Z,6.00
2018-11-10T20:52:52.289Z,6.27
2018-11-10T20:55:20.534Z,7.10
2018-11-10T20:57:50.192Z,6.33
2018-11-10T21:00:18.663Z,6.93
2018-11-10T21:02:47.643Z,6.70
2018-11-10T21:05:15.926Z,6.10
2018-11-10T21:07:44.176Z,5.27
2018-11-10T21:10:12.440Z,5.83
2018-11-10T21:12:40.766Z,5.33
2018-11-10T21:15:08.993Z,5.87
2018-11-10T21:17:37.264Z,5.07
2018-11-10T21:20:06.358Z,5.23
2018-11-10T21:22:34.566Z,5.17
2018-11-10T21:25:02.838Z,4.43
2018-11-10T21:27:31.095Z,4.60
2018-11-10T21:29:59.424Z,5.23
2018-11-10T21:32:27.617Z,5.63
2018-11-10T21:34:55.873Z,5.23
2018-11-10T21:37:24.147Z,4.83
2018-11-10T21:39:52.434Z,4.77
2018-11-10T21:42:20.681Z,4.60
2018-11-10T21:44:48.947Z,4.70
2018-11-10T21:47:17.202Z,5.33
2018-11-10T21:49:45.569Z,5.93
2018-11-10T21:52:13.713Z,5.57
2018-11-10T21:54:42.751Z,5.37
2018-11-10T21:57:10.997Z,5.97
2018-11-10T21:59:39.280Z,5.07
2018-11-10T22:02:07.521Z,5.47
2018-11-10T22:04:35.798Z,5.70
2018-11-10T22:07:04.046Z,5.20
2018-11-10T22:09:32.488Z,5.27
2018-11-10T22:12:00.557Z,5.80
2018-11-10T22:14:28.826Z,5.33
2018-11-10T22:16:57.856Z,6.00
2018-11-10T22:19:26.118Z,6.37
2018-11-10T22:21:54.383Z,7.17
2018-11-10T22:24:22.633Z,6.03
2018-11-10T22:26:51.662Z,6.40
2018-11-10T22:29:19.973Z,5.87
2018-11-10T22:31:48.230Z,5.67
2018-11-10T22:34:16.506Z,5.53
2018-11-10T22:36:44.755Z,5.50
2018-11-10T22:39:13.029Z,5.23
2018-11-10T22:41:41.278Z,5.43
2018-11-10T22:44:10.287Z,5.00
2018-11-10T22:46:38.556Z,4.87
2018-11-10T22:49:06.799Z,5.40
2018-11-10T22:51:35.106Z,5.10
2018-11-10T22:54:04.118Z,5.37
2018-11-10T22:56:32.400Z,4.30
2018-11-10T22:59:00.641Z,5.37
2018-11-10T23:01:29.671Z,4.17
2018-11-10T23:03:57.923Z,3.43
2018-11-10T23:06:26.179Z,3.93
2018-11-10T23:08:55.212Z,3.60
2018-11-10T23:11:23.454Z,3.60
2018-11-10T23:13:51.970Z,3.53
2018-11-10T23:16:20.196Z,3.13
2018-11-10T23:18:49.251Z,3.40
2018-11-10T23:21:17.512Z,3.27
2018-11-10T23:23:45.754Z,3.17
2018-11-10T23:26:14.768Z,3.07
2018-11-10T23:28:43.029Z,2.87
2018-11-10T23:31:11.309Z,3.03
2018-11-10T23:33:39.549Z,3.03
2018-11-10T23:36:07.803Z,3.00
2018-11-10T23:38:36.059Z,2.60
2018-11-10T23:41:04.341Z,3.10
2018-11-10T23:43:32.575Z,2.70
2018-11-10T23:46:00.830Z,2.67
2018-11-10T23:48:29.857Z,2.80
2018-11-10T23:50:58.113Z,2.67
2018-11-10T23:53:26.372Z,2.90
2018-11-10T23:55:54.645Z,2.67
2018-11-10T23:58:23.655Z,2.80
